createdAt,value
2022-10-13T00:00:11.527Z,95.00
2022-10-13T00:02:39.756Z,95.00
2022-10-13T00:05:08.091Z,95.00
2022-10-13T00:07:34.892Z,95.00
2022-10-13T00:10:02.852Z,95.00
2022-10-13T00:12:29.837Z,95.00
2022-10-13T00:14:58.312Z,95.00
2022-10-13T00:17:25.058Z,95.00
2022-10-13T00:19:55.608Z,95.00
2022-10-13T00:22:22.396Z,95.00
2022-10-13T00:24:51.927Z,95.00
2022-10-13T00:27:18.718Z,95.00
2022-10-13T00:29:46.146Z,95.00
2022-10-13T00:32:13.247Z,95.00
2022-10-13T00:34:41.237Z,95.00
2022-10-13T00:37:10.522Z,95.00
2022-10-13T00:39:38.101Z,95.00
2022-10-13T00:42:06.519Z,95.00
2022-10-13T00:45:02.805Z,95.00
2022-10-13T00:47:36.416Z,95.00
2022-10-13T00:50:04.986Z,95.00
2022-10-13T00:52:33.568Z,95.00
2022-10-13T00:55:02.657Z,95.00
2022-10-13T00:57:29.727Z,95.00
2022-10-13T00:59:57.666Z,95.00
2022-10-13T01:02:31.492Z,95.00
2022-10-13T01:04:59.646Z,95.00
2022-10-13T01:07:27.925Z,95.00
2022-10-13T01:09:56.466Z,95.00
2022-10-13T01:12:36.072Z,95.00
2022-10-13T01:15:10.299Z,95.00
2022-10-13T01:17:47.547Z,95.00
2022-10-13T01:20:41.858Z,95.00
2022-10-13T01:23:36.959Z,95.00
2022-10-13T01:26:28.975Z,95.00
2022-10-13T01:29:15.029Z,95.00
2022-10-13T01:31:49.373Z,95.00
2022-10-13T01:34:19.201Z,95.00
2022-10-13T01:36:55.133Z,95.00
2022-10-13T01:39:27.316Z,95.00
2022-10-13T01:42:01.940Z,95.00
2022-10-13T01:44:36.888Z,95.00
2022-10-13T01:47:07.551Z,95.00
2022-10-13T01:49:35.871Z,95.00
2022-10-13T01:52:07.336Z,95.00
2022-10-13T01:54:34.251Z,95.00
2022-10-13T01:57:02.193Z,95.00
2022-10-13T01:59:33.264Z,95.00
2022-10-13T02:02:09.670Z,95.00
2022-10-13T02:04:45.782Z,95.00
2022-10-13T02:07:19.854Z,95.00
2022-10-13T02:09:56.259Z,95.00
2022-10-13T02:12:27.744Z,95.00
2022-10-13T02:14:56.811Z,95.00
2022-10-13T02:17:27.648Z,95.00
2022-10-13T02:19:55.602Z,95.00
2022-10-13T02:22:29.672Z,95.00
2022-10-13T02:24:56.866Z,95.00
2022-10-13T02:27:24.026Z,95.00
2022-10-13T02:29:53.004Z,95.00
2022-10-13T02:32:20.845Z,95.00
2022-10-13T02:34:49.765Z,95.00
2022-10-13T02:37:17.340Z,95.00
2022-10-13T02:39:44.329Z,95.00
2022-10-13T02:42:11.281Z,95.00
2022-10-13T02:44:38.144Z,95.00
2022-10-13T02:47:05.248Z,95.00
2022-10-13T02:49:32.101Z,95.00
2022-10-13T02:52:01.256Z,95.00
2022-10-13T02:54:29.492Z,95.00
2022-10-13T02:56:56.349Z,95.00
2022-10-13T02:59:23.118Z,95.00
2022-10-13T03:01:50.228Z,95.00
2022-10-13T03:04:17.184Z,95.00
2022-10-13T03:06:44.116Z,95.00
2022-10-13T03:09:12.303Z,95.00
2022-10-13T03:11:39.143Z,95.00
2022-10-13T03:14:05.910Z,95.00
2022-10-13T03:16:32.919Z,95.00
2022-10-13T03:18:59.695Z,95.00
2022-10-13T03:21:27.530Z,95.00
2022-10-13T03:23:54.270Z,95.00
2022-10-13T03:26:22.551Z,95.00
2022-10-13T03:28:49.981Z,95.00
2022-10-13T03:31:17.775Z,95.00
2022-10-13T03:33:48.106Z,95.00
2022-10-13T03:36:14.859Z,95.00
2022-10-13T03:38:42.937Z,95.00
2022-10-13T03:41:15.055Z,95.00
2022-10-13T03:43:44.363Z,95.00
2022-10-13T03:46:12.382Z,95.00
2022-10-13T03:48:39.559Z,95.00
2022-10-13T03:51:07.582Z,95.00
2022-10-13T03:53:35.397Z,95.00
2022-10-13T03:56:02.855Z,95.00
2022-10-13T03:58:30.507Z,95.00
2022-10-13T04:01:03.113Z,95.00
2022-10-13T04:03:30.251Z,95.00
2022-10-13T04:06:00.839Z,95.00
2022-10-13T04:08:27.732Z,95.00
2022-10-13T04:10:58.962Z,95.00
2022-10-13T04:13:25.973Z,95.00
2022-10-13T04:15:52.937Z,95.00
2022-10-13T04:18:22.186Z,95.00
2022-10-13T04:20:49.112Z,95.00
2022-10-13T04:23:15.904Z,95.00
2022-10-13T04:25:42.759Z,95.00
2022-10-13T04:28:11.706Z,95.00
2022-10-13T04:30:38.596Z,95.00
2022-10-13T04:33:06.165Z,95.00
2022-10-13T04:35:39.261Z,95.00
2022-10-13T04:38:06.012Z,95.00
2022-10-13T04:40:34.083Z,95.00
2022-10-13T04:43:01.831Z,95.00
2022-10-13T04:45:29.062Z,95.00
2022-10-13T04:47:57.074Z,95.00
2022-10-13T04:50:24.257Z,95.00
2022-10-13T04:52:52.561Z,95.00
2022-10-13T04:55:19.321Z,95.00
2022-10-13T04:57:46.139Z,95.00
2022-10-13T05:00:13.875Z,95.00
2022-10-13T05:02:41.762Z,95.00
2022-10-13T05:05:09.643Z,95.00
2022-10-13T05:07:36.466Z,95.00
2022-10-13T05:10:05.278Z,95.00
2022-10-13T05:12:32.468Z,95.00
2022-10-13T05:14:59.235Z,95.00
2022-10-13T05:17:26.085Z,95.00
2022-10-13T05:19:52.842Z,95.00
2022-10-13T05:22:20.035Z,95.00
2022-10-13T05:24:47.000Z,95.00
2022-10-13T05:27:15.947Z,95.00
2022-10-13T05:29:42.701Z,95.00
2022-10-13T05:32:09.915Z,95.00
2022-10-13T05:34:36.782Z,95.00
2022-10-13T05:37:03.526Z,95.00
2022-10-13T05:39:31.882Z,95.00
2022-10-13T05:41:58.904Z,95.00
2022-10-13T05:44:27.179Z,95.00
2022-10-13T05:46:54.017Z,95.00
2022-10-13T05:49:22.089Z,95.00
2022-10-13T05:51:52.774Z,95.00
2022-10-13T05:54:23.159Z,95.00
2022-10-13T05:56:54.092Z,95.00
2022-10-13T05:59:27.282Z,95.00
2022-10-13T06:01:56.337Z,95.00
2022-10-13T06:04:29.255Z,95.00
2022-10-13T06:06:57.150Z,95.00
2022-10-13T06:09:24.103Z,95.00
2022-10-13T06:11:52.129Z,95.00
2022-10-13T06:14:19.096Z,95.00
2022-10-13T06:16:46.292Z,95.00
2022-10-13T06:19:14.912Z,95.00
2022-10-13T06:21:41.708Z,95.00
2022-10-13T06:24:08.754Z,95.00
2022-10-13T06:26:35.749Z,95.00
2022-10-13T06:29:02.596Z,95.00
2022-10-13T06:31:29.531Z,95.00
2022-10-13T06:33:56.619Z,95.00
2022-10-13T06:36:25.041Z,95.00
2022-10-13T06:38:52.157Z,95.00
2022-10-13T06:41:19.244Z,95.00
2022-10-13T06:43:46.292Z,95.00
2022-10-13T06:46:13.359Z,95.00
2022-10-13T06:48:40.429Z,95.00
2022-10-13T06:51:09.736Z,95.00
2022-10-13T06:53:39.286Z,95.00
2022-10-13T06:56:07.698Z,95.00
2022-10-13T06:58:35.013Z,95.00
2022-10-13T07:01:02.590Z,95.00
2022-10-13T07:03:29.508Z,95.00
2022-10-13T07:06:00.764Z,95.00
2022-10-13T07:08:27.833Z,95.00
2022-10-13T07:10:56.157Z,95.00
2022-10-13T07:13:23.242Z,95.00
2022-10-13T07:15:50.095Z,95.00
2022-10-13T07:18:17.143Z,95.00
2022-10-13T07:20:44.193Z,94.88
2022-10-13T07:23:11.411Z,92.72
2022-10-13T07:25:38.182Z,91.13
2022-10-13T07:28:07.368Z,90.50
2022-10-13T07:30:34.319Z,88.44
2022-10-13T07:33:01.071Z,88.42
2022-10-13T07:35:30.919Z,86.80
2022-10-13T07:37:58.248Z,86.35
2022-10-13T07:40:26.268Z,85.19
2022-10-13T07:42:53.299Z,84.82
2022-10-13T07:45:21.710Z,82.00
2022-10-13T07:47:48.615Z,81.68
2022-10-13T07:50:15.631Z,80.69
2022-10-13T07:52:44.000Z,81.02
2022-10-13T07:55:11.000Z,81.11
2022-10-13T07:57:37.784Z,80.22
2022-10-13T08:00:06.390Z,80.27
2022-10-13T08:02:34.589Z,80.94
2022-10-13T08:05:03.198Z,79.20
2022-10-13T08:07:30.990Z,80.02
2022-10-13T08:09:58.019Z,79.94
2022-10-13T08:12:25.488Z,79.21
2022-10-13T08:14:52.313Z,79.09
2022-10-13T08:17:19.547Z,78.78
2022-10-13T08:19:48.004Z,78.24
2022-10-13T08:22:15.209Z,77.05
2022-10-13T08:24:42.180Z,76.91
2022-10-13T08:27:11.479Z,74.91
2022-10-13T08:29:38.336Z,73.62
2022-10-13T08:32:05.683Z,74.85
2022-10-13T08:34:33.003Z,74.53
2022-10-13T08:37:03.508Z,73.54
2022-10-13T08:39:30.615Z,74.78
2022-10-13T08:41:57.872Z,72.92
2022-10-13T08:47:35.584Z,70.52
2022-10-13T08:50:07.320Z,71.22
2022-10-13T08:52:47.123Z,71.28
2022-10-13T08:55:24.744Z,70.87
2022-10-13T08:57:52.688Z,70.15
2022-10-13T09:00:19.820Z,70.20
2022-10-13T09:02:54.326Z,70.03
2022-10-13T09:05:36.445Z,69.76
2022-10-13T09:08:14.733Z,68.39
2022-10-13T09:10:48.847Z,69.43
2022-10-13T09:13:15.566Z,67.85
2022-10-13T09:15:46.001Z,67.43
2022-10-13T09:18:14.222Z,67.20
2022-10-13T09:20:41.522Z,67.05
2022-10-13T09:23:19.066Z,66.22
2022-10-13T09:25:48.865Z,65.57
2022-10-13T09:28:21.607Z,65.83
2022-10-13T09:31:02.990Z,64.48
2022-10-13T09:33:33.875Z,64.24
2022-10-13T09:36:11.671Z,64.83
2022-10-13T09:38:41.408Z,64.74
2022-10-13T09:41:15.738Z,64.78
2022-10-13T09:43:44.319Z,62.08
2022-10-13T09:46:19.232Z,62.58
2022-10-13T09:48:50.742Z,61.88
2022-10-13T09:51:32.917Z,61.78
2022-10-13T09:54:01.238Z,60.80
2022-10-13T09:56:34.898Z,61.11
2022-10-13T09:59:10.962Z,61.04
2022-10-13T10:01:42.095Z,60.01
2022-10-13T10:04:16.383Z,61.68
2022-10-13T10:06:45.386Z,57.15
2022-10-13T10:09:28.638Z,58.94
2022-10-13T10:11:58.936Z,58.07
2022-10-13T10:14:27.380Z,56.99
2022-10-13T10:17:03.891Z,57.19
2022-10-13T10:19:46.626Z,57.37
2022-10-13T10:22:21.402Z,56.17
2022-10-13T10:24:57.380Z,56.77
2022-10-13T10:27:29.807Z,57.32
2022-10-13T10:30:01.997Z,55.25
2022-10-13T10:32:39.996Z,56.19
2022-10-13T10:35:13.734Z,57.83
2022-10-13T10:38:07.292Z,57.08
2022-10-13T10:40:46.459Z,56.34
2022-10-13T10:43:42.927Z,56.53
2022-10-13T10:46:16.106Z,56.12
2022-10-13T10:48:45.334Z,55.37
2022-10-13T10:51:13.950Z,55.21
2022-10-13T10:53:51.819Z,55.92
2022-10-13T10:56:31.062Z,55.70
2022-10-13T10:59:07.073Z,56.83
2022-10-13T11:01:40.501Z,54.68
2022-10-13T11:04:32.937Z,54.92
2022-10-13T11:06:59.958Z,53.09
2022-10-13T11:10:02.103Z,53.40
2022-10-13T11:13:01.736Z,52.60
2022-10-13T11:15:40.694Z,52.19
2022-10-13T11:18:40.757Z,53.80
2022-10-13T11:21:09.576Z,55.69
2022-10-13T11:23:45.042Z,54.81
2022-10-13T11:26:42.535Z,53.75
2022-10-13T11:29:39.668Z,52.52
2022-10-13T11:32:42.533Z,53.24
2022-10-13T11:35:20.324Z,52.55
2022-10-13T11:38:07.407Z,52.11
2022-10-13T11:40:45.865Z,52.80
2022-10-13T11:43:29.600Z,54.13
2022-10-13T11:46:20.086Z,52.65
2022-10-13T11:49:22.899Z,53.20
2022-10-13T11:52:10.573Z,54.29
2022-10-13T11:54:43.247Z,52.59
2022-10-13T11:57:19.417Z,51.71
2022-10-13T11:59:48.210Z,54.11
2022-10-13T12:02:19.125Z,52.17
2022-10-13T12:05:00.850Z,52.15
2022-10-13T12:07:34.312Z,52.20
2022-10-13T12:10:04.864Z,51.02
2022-10-13T12:12:32.035Z,48.29
2022-10-13T12:15:01.292Z,50.27
2022-10-13T12:17:34.239Z,51.79
2022-10-13T12:20:05.000Z,50.09
2022-10-13T12:22:36.805Z,51.17
2022-10-13T12:25:07.619Z,51.35
2022-10-13T12:27:46.780Z,52.11
2022-10-13T12:30:21.296Z,51.22
2022-10-13T12:32:50.174Z,51.97
2022-10-13T12:35:19.225Z,50.55
2022-10-13T12:37:48.674Z,51.27
2022-10-13T12:40:18.070Z,51.76
2022-10-13T12:42:47.364Z,51.96
2022-10-13T12:45:17.081Z,52.71
2022-10-13T12:47:49.605Z,53.30
2022-10-13T12:50:39.121Z,52.54
2022-10-13T12:53:16.944Z,54.08
2022-10-13T12:55:51.576Z,52.61
2022-10-13T12:58:21.666Z,52.87
2022-10-13T13:00:57.427Z,53.62
2022-10-13T13:03:29.132Z,53.70
2022-10-13T13:06:22.878Z,52.45
2022-10-13T13:09:22.062Z,50.95
2022-10-13T13:12:04.098Z,47.73
2022-10-13T13:14:38.767Z,48.51
2022-10-13T13:17:10.065Z,48.01
2022-10-13T13:19:37.325Z,48.43
2022-10-13T13:22:04.748Z,49.19
2022-10-13T13:24:39.873Z,50.53
2022-10-13T13:27:34.159Z,52.84
2022-10-13T13:30:01.311Z,49.92
2022-10-13T13:32:28.465Z,50.51
2022-10-13T13:34:55.256Z,53.89
2022-10-13T13:37:29.875Z,51.66
2022-10-13T13:39:57.109Z,52.22
2022-10-13T13:42:29.310Z,55.00
2022-10-13T13:44:57.380Z,55.27
2022-10-13T13:47:26.307Z,55.70
2022-10-13T13:49:54.645Z,55.62
2022-10-13T13:52:22.137Z,57.40
2022-10-13T13:54:49.756Z,56.74
2022-10-13T13:57:18.935Z,57.52
2022-10-13T13:59:47.494Z,57.44
2022-10-13T14:02:18.161Z,58.45
2022-10-13T14:04:45.413Z,57.44
2022-10-13T14:07:12.617Z,57.64
2022-10-13T14:09:39.563Z,58.96
2022-10-13T14:12:08.727Z,58.68
2022-10-13T14:14:35.608Z,60.20
2022-10-13T14:17:05.187Z,59.29
2022-10-13T14:19:32.635Z,60.50
2022-10-13T14:22:00.132Z,61.96
2022-10-13T14:24:28.171Z,63.38
2022-10-13T14:26:54.940Z,64.50
2022-10-13T14:29:22.245Z,64.56
2022-10-13T14:31:49.387Z,65.79
2022-10-13T14:34:18.098Z,66.90
2022-10-13T14:36:45.122Z,67.52
2022-10-13T14:39:12.156Z,67.59
2022-10-13T14:41:38.917Z,66.35
2022-10-13T14:44:05.955Z,68.23
2022-10-13T14:46:32.707Z,69.69
2022-10-13T14:49:00.655Z,72.94
2022-10-13T14:51:28.896Z,72.68
2022-10-13T14:53:55.757Z,71.95
2022-10-13T14:56:24.107Z,70.56
2022-10-13T14:58:52.824Z,71.65
2022-10-13T15:01:21.578Z,74.02
2022-10-13T15:03:48.677Z,74.71
2022-10-13T15:06:17.756Z,75.72
2022-10-13T15:08:48.179Z,76.25
2022-10-13T15:11:17.891Z,75.41
2022-10-13T15:13:45.391Z,76.48
2022-10-13T15:16:16.798Z,78.19
2022-10-13T15:18:43.878Z,78.41
2022-10-13T15:21:11.530Z,76.73
2022-10-13T15:23:39.159Z,75.51
2022-10-13T15:26:08.771Z,69.04
2022-10-13T15:28:38.841Z,76.36
2022-10-13T15:31:06.962Z,76.91
2022-10-13T15:33:34.303Z,79.03
2022-10-13T15:36:02.785Z,79.47
2022-10-13T15:38:30.111Z,80.89
2022-10-13T15:40:59.824Z,81.97
2022-10-13T15:43:29.630Z,79.85
2022-10-13T15:46:00.158Z,79.04
2022-10-13T15:48:27.346Z,79.79
2022-10-13T15:50:54.112Z,79.87
2022-10-13T15:53:21.413Z,76.87
2022-10-13T15:55:48.747Z,76.11
2022-10-13T15:58:18.594Z,77.80
2022-10-13T16:00:46.804Z,75.50
2022-10-13T16:03:15.141Z,77.50
2022-10-13T16:05:43.079Z,79.90
2022-10-13T16:08:10.069Z,82.33
2022-10-13T16:10:39.062Z,84.90
2022-10-13T16:13:05.986Z,84.32
2022-10-13T16:15:32.777Z,80.25
2022-10-13T16:18:01.161Z,76.04
2022-10-13T16:20:28.100Z,75.75
2022-10-13T16:22:55.406Z,77.70
2022-10-13T16:25:22.162Z,77.19
2022-10-13T16:27:49.344Z,67.18
2022-10-13T16:30:16.644Z,71.69
2022-10-13T16:32:43.723Z,71.51
2022-10-13T16:35:17.754Z,74.90
2022-10-13T16:37:44.523Z,68.63
2022-10-13T16:40:11.586Z,67.69
2022-10-13T16:42:38.397Z,69.23
2022-10-13T16:45:07.516Z,65.58
2022-10-13T16:47:34.310Z,67.26
2022-10-13T16:50:02.287Z,63.13
2022-10-13T16:52:30.840Z,65.80
2022-10-13T16:54:58.865Z,66.57
2022-10-13T16:57:25.894Z,67.35
2022-10-13T16:59:52.795Z,66.32
2022-10-13T17:02:19.631Z,66.79
2022-10-13T17:04:47.804Z,68.53
2022-10-13T17:07:14.515Z,68.37
2022-10-13T17:09:42.807Z,66.46
2022-10-13T17:12:09.632Z,70.50
2022-10-13T17:14:36.849Z,72.15
2022-10-13T17:17:03.814Z,67.11
2022-10-13T17:19:30.561Z,69.49
2022-10-13T17:21:58.753Z,69.37
2022-10-13T17:24:25.541Z,66.48
2022-10-13T17:26:53.786Z,70.92
2022-10-13T17:29:20.637Z,68.46
2022-10-13T17:31:47.960Z,68.80
2022-10-13T17:34:14.700Z,70.36
2022-10-13T17:36:42.649Z,70.36
2022-10-13T17:39:13.321Z,70.08
2022-10-13T17:41:41.852Z,70.02
2022-10-13T17:44:11.080Z,68.93
2022-10-13T17:46:39.267Z,67.36
2022-10-13T17:49:07.825Z,69.97
2022-10-13T17:51:34.967Z,69.81
2022-10-13T17:54:01.905Z,70.75
2022-10-13T17:56:29.262Z,71.33
2022-10-13T17:58:57.434Z,68.65
2022-10-13T18:01:28.219Z,68.71
2022-10-13T18:03:57.207Z,64.65
2022-10-13T18:06:24.579Z,67.23
2022-10-13T18:08:52.247Z,67.06
2022-10-13T18:11:21.270Z,68.04
2022-10-13T18:13:48.906Z,67.75
2022-10-13T18:16:18.127Z,73.21
2022-10-13T18:18:47.626Z,75.01
2022-10-13T18:21:15.519Z,75.25
2022-10-13T18:23:43.061Z,74.64
2022-10-13T18:26:13.106Z,75.63
2022-10-13T18:28:44.197Z,75.81
2022-10-13T18:31:13.356Z,75.88
2022-10-13T18:33:41.559Z,76.09
2022-10-13T18:36:16.891Z,75.20
2022-10-13T18:38:45.158Z,75.03
2022-10-13T18:41:12.902Z,73.17
2022-10-13T18:43:39.864Z,72.45
2022-10-13T18:46:06.911Z,72.90
2022-10-13T18:48:34.041Z,74.20
2022-10-13T18:51:05.390Z,75.73
2022-10-13T18:53:34.593Z,75.07
2022-10-13T18:56:03.621Z,74.60
2022-10-13T18:58:31.453Z,75.89
2022-10-13T19:01:02.646Z,78.06
2022-10-13T19:03:31.015Z,77.09
2022-10-13T19:05:58.039Z,78.77
2022-10-13T19:08:28.646Z,78.79
2022-10-13T19:10:57.696Z,79.32
2022-10-13T19:13:24.982Z,79.23
2022-10-13T19:15:53.456Z,79.37
2022-10-13T19:18:20.390Z,80.34
2022-10-13T19:20:47.511Z,81.87
2022-10-13T19:23:15.179Z,83.40
2022-10-13T19:25:44.141Z,85.36
2022-10-13T19:28:12.934Z,86.97
2022-10-13T19:30:40.231Z,85.54
2022-10-13T19:33:09.241Z,84.76
2022-10-13T19:35:39.595Z,84.85
2022-10-13T19:38:07.247Z,84.74
2022-10-13T19:40:36.010Z,83.61
2022-10-13T19:43:06.932Z,84.76
2022-10-13T19:45:36.663Z,85.40
2022-10-13T19:48:03.851Z,84.13
2022-10-13T19:50:33.145Z,83.65
2022-10-13T19:52:59.967Z,81.27
2022-10-13T19:55:26.750Z,80.39
2022-10-13T19:57:53.760Z,80.15
2022-10-13T20:00:20.860Z,82.78
2022-10-13T20:02:50.506Z,82.84
2022-10-13T20:05:19.920Z,80.94
2022-10-13T20:07:52.381Z,81.03
2022-10-13T20:10:20.592Z,83.63
2022-10-13T20:12:51.845Z,83.73
2022-10-13T20:15:18.946Z,86.04
2022-10-13T20:17:46.076Z,87.41
2022-10-13T20:20:22.151Z,88.01
2022-10-13T20:22:49.584Z,88.54
2022-10-13T20:25:17.474Z,88.74
2022-10-13T20:27:44.233Z,88.78
2022-10-13T20:30:11.878Z,88.78
2022-10-13T20:32:38.618Z,85.17
2022-10-13T20:35:07.103Z,84.94
2022-10-13T20:37:35.528Z,85.29
2022-10-13T20:40:04.839Z,86.84
2022-10-13T20:42:31.633Z,85.64
2022-10-13T20:44:58.365Z,87.12
2022-10-13T20:47:25.255Z,87.90
2022-10-13T20:49:52.134Z,87.29
2022-10-13T20:52:18.904Z,87.53
2022-10-13T20:54:47.359Z,88.11
2022-10-13T20:57:14.178Z,88.53
2022-10-13T20:59:44.110Z,89.06
2022-10-13T21:02:14.333Z,90.84
2022-10-13T21:04:41.030Z,90.48
2022-10-13T21:07:09.435Z,91.82
2022-10-13T21:09:36.340Z,90.88
2022-10-13T21:12:06.090Z,92.28
2022-10-13T21:14:33.124Z,91.53
2022-10-13T21:17:00.179Z,92.59
2022-10-13T21:19:26.924Z,91.13
2022-10-13T21:21:54.043Z,91.70
2022-10-13T21:24:20.902Z,91.47
2022-10-13T21:26:48.592Z,92.08
2022-10-13T21:29:17.006Z,91.60
2022-10-13T21:31:44.011Z,92.55
2022-10-13T21:34:11.157Z,92.70
2022-10-13T21:36:38.183Z,93.07
2022-10-13T21:39:05.710Z,92.11
2022-10-13T21:41:33.255Z,91.74
2022-10-13T21:44:00.760Z,91.97
2022-10-13T21:46:30.862Z,91.13
2022-10-13T21:48:59.128Z,90.53
2022-10-13T21:51:28.123Z,92.82
2022-10-13T21:53:56.633Z,92.44
2022-10-13T21:56:24.345Z,92.37
2022-10-13T21:58:51.525Z,92.76
2022-10-13T22:01:20.045Z,92.65
2022-10-13T22:03:53.723Z,91.45
2022-10-13T22:06:20.771Z,92.63
2022-10-13T22:08:49.306Z,92.23
2022-10-13T22:11:16.916Z,92.61
2022-10-13T22:13:43.957Z,95.00
2022-10-13T22:16:13.402Z,94.62
2022-10-13T22:18:40.702Z,94.23
2022-10-13T22:21:12.268Z,92.72
2022-10-13T22:23:39.240Z,89.97
2022-10-13T22:26:07.144Z,91.65
2022-10-13T22:28:37.261Z,91.07
2022-10-13T22:31:05.786Z,91.36
2022-10-13T22:33:34.896Z,92.36
2022-10-13T22:36:08.157Z,92.28
2022-10-13T22:38:35.048Z,91.46
2022-10-13T22:41:03.870Z,91.02
2022-10-13T22:43:30.769Z,90.80
2022-10-13T22:45:57.925Z,90.42
2022-10-13T22:48:25.448Z,91.71
2022-10-13T22:50:52.951Z,90.89
2022-10-13T22:53:21.290Z,91.20
2022-10-13T22:55:48.211Z,91.09
2022-10-13T22:58:17.341Z,93.31
2022-10-13T23:00:47.567Z,92.08
2022-10-13T23:03:14.753Z,92.44
2022-10-13T23:05:47.025Z,93.29
2022-10-13T23:08:13.823Z,93.10
2022-10-13T23:10:44.991Z,94.10
2022-10-13T23:13:11.776Z,93.65
2022-10-13T23:15:39.561Z,94.37
2022-10-13T23:18:06.643Z,94.79
2022-10-13T23:20:33.450Z,95.00
2022-10-13T23:23:00.533Z,94.97
2022-10-13T23:25:27.389Z,93.16
2022-10-13T23:27:59.167Z,94.20
2022-10-13T23:30:27.262Z,94.99
2022-10-13T23:32:54.290Z,94.57
2022-10-13T23:35:22.373Z,94.73
2022-10-13T23:37:53.574Z,95.00
2022-10-13T23:40:20.773Z,95.00
2022-10-13T23:42:47.983Z,93.60
2022-10-13T23:45:18.465Z,92.72
2022-10-13T23:47:45.456Z,93.46
2022-10-13T23:50:12.209Z,92.88
2022-10-13T23:52:40.447Z,92.08
2022-10-13T23:55:07.971Z,92.89
2022-10-13T23:57:35.751Z,94.90
